Flight Track Log - Related Links

Times and Time Zones

All times are in EDT time to prevent confusion due to time zone crossing. See the XOJ546 flight status page for this flight to view local times or setup timezone preferences in your user account.

Time Position Orientation Groundspeed Altitude Reporting Facility
EDT Latitude Longitude Course Direction KTS MPH feet Rate Location/Type
Tue 04:23:00 PM 39.5947 -107.0100 231° Southwest 223 257 11,200  Level Denver Center
Tue 04:24:02 PM 39.6494 -107.0486 331° Northwest 264 304 14,100 2,468 Climbing Denver Center
Tue 04:25:04 PM 39.7292 -107.0717 347° North 305 351 16,300 2,419 Climbing Denver Center
Tue 04:26:00 PM 39.9267 -106.0066 108° East  Level FlightAware Approximate
Tue 04:26:06 PM 39.7992 -106.9953 40° Northeast 359 413 19,100  Level Denver Center
Tue 04:27:00 PM 39.8925 -105.8473 101° East  Level FlightAware Approximate
Tue 04:27:08 PM 39.8047 -106.8250 88° East 398 458 21,600  Level Denver Center
Tue 04:28:10 PM 39.8108 -106.6683 87° East 430 495 24,000 2,129 Climbing Denver Center
Tue 04:29:12 PM 39.8475 -106.5072 73° East 435 501 26,000 2,613 Climbing Denver Center
Tue 04:30:14 PM 39.8642 -106.3458 82° East 431 496 29,400 2,613 Climbing Denver Center
Tue 04:31:16 PM 39.8703 -106.1861 87° East 443 510 31,400 1,694 Climbing Denver Center
Tue 04:32:18 PM 39.8717 -106.0206 89° East 455 524 32,900 1,500 Climbing Denver Center
Tue 04:33:20 PM 39.8719 -105.8458 90° East 477 549 34,500 1,597 Climbing Denver Center
Tue 04:34:22 PM 39.8722 -105.6706 90° East 482 555 36,200 1,790 Climbing Denver Center
Tue 04:35:24 PM 39.8725 -105.4972 90° East 482 555 38,200 1,935 Climbing Denver Center
Tue 04:36:26 PM 39.8714 -105.3283 90° East 473 544 40,200 1,355 Climbing Denver Center
Tue 04:37:28 PM 39.8692 -105.1261 91° East 465 535 41,000 387 Climbing Denver Center
Tue 04:38:30 PM 39.8667 -104.9442 91° East 466 536 41,000  Level Denver Center
Tue 04:39:32 PM 39.8669 -104.7717 90° East 481 554 41,000  Level Denver Center
Tue 04:40:34 PM 39.8656 -104.5928 91° East 486 559 41,000  Level Denver Center
Tue 04:41:36 PM 39.8631 -104.4144 91° East 486 559 41,000  Level Denver Center
Tue 04:42:38 PM 39.8600 -104.2347 91° East 487 560 41,000  Level Denver Center
Tue 04:43:40 PM 39.8569 -104.0544 91° East 493 567 41,000  Level Denver Center
Tue 04:44:42 PM 39.8536 -103.8725 91° East 497 572 41,000  Level Denver Center
Tue 04:45:44 PM 39.8503 -103.6525 91° East 504 580 41,000  Level Denver Center
Tue 04:46:46 PM 39.8461 -103.4692 92° East 506 582 41,000  Level Denver Center
Tue 04:47:48 PM 39.8417 -103.2861 92° East 506 582 41,000  Level Denver Center
Tue 04:48:50 PM 39.8392 -103.1050 91° East 506 582 41,000  Level Denver Center
Tue 04:49:52 PM 39.8342 -102.9228 92° East 505 581 41,000  Level Denver Center
Tue 04:50:54 PM 39.8294 -102.7408 92° East 504 580 41,000  Level Denver Center
Tue 04:51:56 PM 39.8247 -102.5428 92° East 504 580 41,000  Level Denver Center
Tue 04:52:58 PM 39.8186 -102.3386 92° East 504 580 41,000  Level Denver Center
Tue 04:54:00 PM 39.8139 -102.1653 92° East 504 580 41,000  Level Denver Center
Tue 04:55:01 PM 39.8067 -101.9608 93° East 505 581 41,000  Level Denver Center
Tue 04:56:03 PM 39.8017 -101.7861 92° East 505 581 41,000  Level Denver Center
Tue 04:57:05 PM 39.7942 -101.5800 93° East 510 587 41,000  Level Denver Center
Tue 04:58:07 PM 39.7872 -101.4044 93° East 510 587 41,000  Level Denver Center
Tue 04:59:09 PM 39.7797 -101.1992 93° East 510 587 41,000  Level Denver Center
Tue 05:00:11 PM 39.7728 -101.0233 93° East 510 587 41,000  Level Denver Center
Tue 05:01:13 PM 39.7636 -100.8181 93° East 511 588 41,000  Level Denver Center
Tue 05:02:15 PM 39.7564 -100.6417 93° East 511 588 41,000  Level Denver Center
Tue 05:03:17 PM 39.7489 -100.4650 93° East 511 588 41,000  Level Denver Center
Tue 05:04:19 PM 39.7392 -100.2603 93° East 511 588 41,000  Level Denver Center
Tue 05:05:21 PM 39.7303 -100.0844 94° East 511 588 41,000  Level Denver Center
Tue 05:06:23 PM 39.7211 -99.8825 93° East 511 588 41,000  Level Denver Center
Tue 05:07:25 PM 39.7111 -99.7000 94° East 510 587 41,000  Level Denver Center
Tue 05:08:26 PM 39.7011 -99.5181 94° East 508 585 41,000  Level Denver Center
Tue 05:10:03 PM 39.6839 -99.2269 94° East 511 588 41,000  Level Kansas City Center
Tue 05:11:06 PM 39.6733 -99.0428 94° East 511 588 41,000  Level Kansas City Center
Tue 05:11:44 PM 39.6672 -98.8972 93° East 509 586 41,000  Level Minneapolis Center
Tue 05:12:22 PM 39.6603 -98.7861 95° East 510 587 41,000  Level Denver Center
Tue 05:13:23 PM 39.6486 -98.6000 95° East 513 590 41,000  Level Denver Center
Tue 05:14:25 PM 39.6375 -98.4139 94° East 517 595 41,000  Level Denver Center
Tue 05:15:27 PM 39.6247 -98.2286 95° East 517 595 41,000  Level Denver Center
Tue 05:16:16 PM 39.6164 -98.0894 94° East 521 600 41,000  Level Kansas City Center
Tue 05:17:18 PM 39.6014 -97.8697 95° East 522 601 41,000  Level Kansas City Center
Tue 05:18:21 PM 39.5853 -97.6681 96° East 521 600 41,000  Level Kansas City Center
Tue 05:19:22 PM 39.5717 -97.4786 95° East 523 602 41,000  Level Kansas City Center
Tue 05:20:23 PM 39.5597 -97.2892 95° East 524 603 41,000  Level Kansas City Center
Tue 05:21:27 PM 39.5492 -97.1111 94° East 524 603 41,000  Level Kansas City Center
Tue 05:22:28 PM 39.5358 -96.9231 95° East 524 603 41,000  Level Kansas City Center
Tue 05:23:29 PM 39.5189 -96.7058 96° East 524 603 41,000  Level Kansas City Center
Tue 05:24:33 PM 39.4853 -96.5278 104° East 515 593 41,000 581 Level Kansas City Center
Tue 05:25:33 PM 39.4617 -96.3383 99° East 514 592 42,200 1,016 Climbing Kansas City Center
Tue 05:26:37 PM 39.4472 -96.1500 96° East 504 580 43,100 810 Climbing Kansas City Center
Tue 05:27:39 PM 39.4347 -95.9875 96° East 503 579 43,900 885 Climbing Kansas City Center
Tue 05:28:39 PM 39.4183 -95.7817 96° East 485 558 44,900 532 Climbing Kansas City Center
Tue 05:29:43 PM 39.4047 -95.6125 96° East 477 549 45,000 48 Climbing Kansas City Center
Tue 05:30:44 PM 39.3897 -95.4325 96° East 471 542 45,000  Level Kansas City Center
Tue 05:31:48 PM 39.3747 -95.2572 96° East 472 543 45,000  Level Kansas City Center
Tue 05:32:49 PM 39.3606 -95.0992 97° East 470 541 45,000  Level Kansas City Center
Tue 05:33:50 PM 39.3447 -94.9283 97° East 474 545 45,000  Level Kansas City Center
Tue 05:34:54 PM 39.3286 -94.7500 97° East 488 562 45,000  Level Kansas City Center
Tue 05:35:54 PM 39.3131 -94.5764 97° East 490 564 45,000  Level Kansas City Center
Tue 05:36:58 PM 39.2953 -94.3981 97° East 499 574 45,000  Level Kansas City Center
Tue 05:37:59 PM 39.2758 -94.1847 97° East 496 571 45,000  Level Kansas City Center
Tue 05:39:00 PM 39.2575 -94.0078 98° East 497 572 45,000  Level Kansas City Center
Tue 05:40:04 PM 39.2406 -93.8317 97° East 496 571 45,000  Level Kansas City Center
Tue 05:41:05 PM 39.2225 -93.6539 97° East 501 577 45,000  Level Kansas City Center
Tue 05:42:06 PM 39.2047 -93.4792 97° East 495 570 45,000  Level Kansas City Center
Tue 05:43:09 PM 39.1886 -93.3047 97° East 495 570 45,000  Level Kansas City Center
Tue 05:44:12 PM 39.1672 -93.0981 98° East 492 566 45,000  Level Kansas City Center
Tue 05:45:14 PM 39.1494 -92.9322 98° East 482 555 45,000  Level Kansas City Center
Tue 05:46:14 PM 39.1319 -92.7683 98° East 473 544 45,000  Level Kansas City Center
Tue 05:47:18 PM 39.1114 -92.5839 98° East 472 543 45,000  Level Kansas City Center
Tue 05:48:19 PM 39.0928 -92.4175 98° East 471 542 45,000  Level Kansas City Center
Tue 05:49:20 PM 39.0736 -92.2469 98° East 471 542 45,000  Level Kansas City Center
Tue 05:50:24 PM 39.0533 -92.0742 99° East 477 549 45,000  Level Kansas City Center
Tue 05:51:25 PM 39.0339 -91.9025 98° East 479 551 45,000  Level Kansas City Center
Tue 05:52:28 PM 39.0089 -91.6928 99° East 488 562 45,000  Level Kansas City Center
Tue 05:53:29 PM 38.9886 -91.5269 99° East 488 562 45,000  Level Kansas City Center
Tue 05:54:30 PM 38.9692 -91.3558 98° East 488 562 45,000  Level Kansas City Center
Tue 05:55:35 PM 38.9475 -91.1867 99° East 487 560 45,000  Level Kansas City Center
Tue 05:56:35 PM 38.9269 -91.0181 99° East 481 554 45,000  Level Kansas City Center
Tue 05:57:39 PM 38.9064 -90.8522 99° East 475 547 45,000  Level Kansas City Center
Tue 05:58:40 PM 38.8836 -90.6725 99° East 474 545 45,000  Level Kansas City Center
Tue 05:59:42 PM 38.8625 -90.5008 99° East 481 554 45,000  Level Kansas City Center
Tue 06:00:45 PM 38.8381 -90.3356 101° East 475 547 45,000  Level Kansas City Center
Tue 06:01:46 PM 38.8111 -90.1381 100° East 469 540 45,000  Level Kansas City Center
Tue 06:02:47 PM 38.7875 -89.9739 100° East 477 549 45,000  Level Kansas City Center
Tue 06:03:51 PM 38.7672 -89.7958 98° East 499 574 45,000  Level Kansas City Center
Tue 06:04:51 PM 38.7575 -89.6278 94° East 491 565 45,000  Level Kansas City Center
Tue 06:05:55 PM 38.7969 -89.4589 73° East 505 581 45,000  Level Kansas City Center
Tue 06:06:58 PM 38.8644 -89.2722 65° Northeast 496 571 45,000  Level Kansas City Center
Tue 06:07:59 PM 38.9167 -89.1097 68° East 493 567 45,000  Level Kansas City Center
Tue 06:09:00 PM 38.9703 -88.9539 66° East 489 563 45,000  Level Kansas City Center
Tue 06:10:03 PM 39.0303 -88.7931 64° Northeast 496 571 45,000  Level Kansas City Center
Tue 06:11:04 PM 39.0844 -88.6306 67° East 496 571 45,000  Level Kansas City Center
Tue 06:12:05 PM 39.1417 -88.4564 67° East 495 570 45,000  Level Kansas City Center
Tue 06:13:07 PM 39.1958 -88.2950 67° East 489 563 45,000  Level Kansas City Center
Tue 06:14:10 PM 39.2483 -88.1344 67° East 488 562 45,000  Level Kansas City Center
Tue 06:15:11 PM 39.3108 -87.9425 67° East 490 564 45,000  Level Indianapolis Center
Tue 06:16:13 PM 39.3644 -87.7825 67° East 487 560 45,000  Level Indianapolis Center
Tue 06:17:15 PM 39.4153 -87.6253 67° East 484 557 45,000  Level Indianapolis Center
Tue 06:18:17 PM 39.4672 -87.4669 67° East 481 554 45,000  Level Indianapolis Center
Tue 06:19:19 PM 39.5175 -87.3072 68° East 481 554 45,000  Level Indianapolis Center
Tue 06:20:21 PM 39.5692 -87.1472 67° East 481 554 45,000  Level Indianapolis Center
Tue 06:21:23 PM 39.6206 -86.9867 67° East 481 554 45,000  Level Indianapolis Center
Tue 06:22:25 PM 39.6819 -86.7933 68° East 480 552 45,000  Level Indianapolis Center
Tue 06:23:27 PM 39.7331 -86.6314 68° East 486 559 45,000  Level Indianapolis Center
Tue 06:24:28 PM 39.7683 -86.4647 75° East 481 554 45,000  Level Indianapolis Center
Tue 06:25:30 PM 39.7453 -86.2836 99° East 485 558 45,000  Level Indianapolis Center
Tue 06:26:32 PM 39.6725 -86.1508 125° Southeast 473 544 45,000  Level Indianapolis Center
Tue 06:27:34 PM 39.5836 -86.0153 130° Southeast 465 535 45,000  Level Indianapolis Center
Tue 06:28:36 PM 39.5017 -85.8919 131° Southeast 455 524 45,000  Level Indianapolis Center
Tue 06:29:38 PM 39.4186 -85.7664 131° Southeast 456 525 45,000  Level Indianapolis Center
Tue 06:30:40 PM 39.3356 -85.6406 130° Southeast 458 527 45,000  Level Indianapolis Center
Tue 06:31:41 PM 39.2842 -85.4878 113° Southeast 474 545 45,000  Level Indianapolis Center
Tue 06:32:43 PM 39.2683 -85.3172 97° East 477 549 45,000  Level Indianapolis Center
Tue 06:33:45 PM 39.2375 -85.1142 101° East 484 557 45,000  Level Indianapolis Center
Tue 06:34:47 PM 39.2044 -84.9503 105° East 479 551 45,000  Level Indianapolis Center
Tue 06:35:49 PM 39.1581 -84.7783 109° East 479 551 45,000  Level Indianapolis Center
Tue 06:36:51 PM 39.0983 -84.6281 117° Southeast 477 549 45,000  Level Indianapolis Center
Tue 06:37:53 PM 39.0256 -84.4897 124° Southeast 474 545 45,000  Level Indianapolis Center
Tue 06:38:55 PM 38.9314 -84.3786 137° Southeast 464 534 45,000  Level Indianapolis Center
Tue 06:39:57 PM 38.8383 -84.2744 139° Southeast 451 519 45,000  Level Indianapolis Center
Tue 06:40:58 PM 38.7464 -84.1694 138° Southeast 449 517 45,000  Level Indianapolis Center
Tue 06:42:00 PM 38.6322 -84.0428 139° Southeast 449 517 45,000 -968 Level Indianapolis Center
Tue 06:43:02 PM 38.5400 -83.9378 138° Southeast 447 514 43,000 -2,129 Descending Indianapolis Center
Tue 06:44:04 PM 38.4461 -83.8347 139° Southeast 442 509 40,600 -2,371 Descending Indianapolis Center
Tue 06:45:06 PM 38.3461 -83.7222 139° Southeast 473 544 38,100 -2,419 Descending Indianapolis Center
Tue 06:46:08 PM 38.2472 -83.6119 139° Southeast 473 544 35,600 -1,935 Descending Indianapolis Center
Tue 06:47:10 PM 38.1458 -83.5008 139° Southeast 476 548 34,100 -1,171 Descending Indianapolis Center
Tue 06:48:11 PM 38.0261 -83.3694 139° Southeast 482 555 33,200 -537 Descending Indianapolis Center
Tue 06:49:13 PM 37.9258 -83.2572 139° Southeast 482 555 33,000 -97 Descending Indianapolis Center
Tue 06:50:15 PM 37.8231 -83.1467 140° Southeast 482 555 33,000  Level Indianapolis Center
Tue 06:51:17 PM 37.7217 -83.0358 139° Southeast 482 555 33,000  Level Indianapolis Center
Tue 06:52:19 PM 37.6192 -82.9256 140° Southeast 482 555 33,000  Level Indianapolis Center
Tue 06:53:21 PM 37.5181 -82.8158 139° Southeast 481 554 33,000  Level Indianapolis Center
Tue 06:54:23 PM 37.4169 -82.7061 139° Southeast 481 554 33,000  Level Indianapolis Center
Tue 06:55:24 PM 37.2978 -82.5789 140° Southeast 481 554 33,000  Level Indianapolis Center
Tue 06:56:26 PM 37.1950 -82.4692 140° Southeast 480 552 33,000  Level Indianapolis Center
Tue 06:57:28 PM 37.0931 -82.3600 139° Southeast 480 552 33,000 -484 Level Indianapolis Center
Tue 06:58:30 PM 36.9911 -82.2522 140° Southeast 480 552 32,000 -1,415 Descending Indianapolis Center
Tue 06:59:31 PM 36.8892 -82.1450 140° Southeast 478 550 30,100 -1,902 Descending Indianapolis Center
Tue 07:00:33 PM 36.7842 -82.0353 140° Southeast 481 554 28,100 -1,859 Descending Indianapolis Center
Tue 07:01:53 PM 36.6711 -81.8700 130° Southeast 467 537 25,700 -1,629 Descending Atlanta Center
Tue 07:02:53 PM 36.6122 -81.7344 118° Southeast 460 529 24,300 -850 Descending Atlanta Center
Tue 07:03:53 PM 36.5447 -81.5864 120° Southeast 453 521 24,000 -750 Descending Atlanta Center
Tue 07:04:53 PM 36.4856 -81.4489 118° Southeast 447 514 22,800 -1,700 Descending Atlanta Center
Tue 07:05:53 PM 36.4264 -81.3192 120° Southeast 442 509 20,600 -2,250 Descending Atlanta Center
Tue 07:06:53 PM 36.3672 -81.1869 119° Southeast 437 503 18,300 -2,100 Descending Atlanta Center
Tue 07:07:53 PM 36.3103 -81.0681 121° Southeast 418 481 16,400 -1,800 Descending Atlanta Center
Tue 07:08:53 PM 36.2572 -80.9514 119° Southeast 397 457 14,700 -1,700 Descending Atlanta Center
Tue 07:09:53 PM 36.2022 -80.8378 121° Southeast 392 451 13,000 -1,600 Descending Atlanta Center
Tue 07:10:53 PM 36.1511 -80.7217 119° Southeast 392 451 11,500 -1,000 Descending Atlanta Center
Tue 07:11:53 PM 36.1228 -80.5994 106° East 385 443 11,000 -250 Descending Atlanta Center
Tue 07:12:53 PM 36.1089 -80.4842 98° East 374 430 11,000 -150 Level Atlanta Center
Tue 07:13:53 PM 36.0931 -80.3667 99° East 369 425 10,700 -950 Descending Atlanta Center
Tue 07:14:53 PM 36.0794 -80.2622 99° East 333 383 9,100 -1,700 Descending Atlanta Center
Tue 07:15:53 PM 36.0681 -80.1650 98° East 307 353 7,300 -1,550 Descending Atlanta Center
Tue 07:16:53 PM 36.1114 -80.0883 55° Northeast 259 298 6,000 -700 Descending Atlanta Center
Tue 07:17:53 PM 36.1697 -80.0211 43° Northeast 250 288 5,900 -500 Descending Atlanta Center
Tue 07:18:53 PM 36.2075 -79.9603 52° Northeast 248 285 5,000 -900 Descending Atlanta Center
Tue 07:20:00 PM 36.1013 -79.9411 172° South  Level Estimated
Tue 07:27:00 PM 36.1000 -79.9333 15° North  Level FlightAware Approximate
Tue 07:28:00 PM 36.1013 -79.9411 15° North  Level Estimated
Tue 07:29:00 PM 36.1000 -79.9333 15° North  Level FlightAware Approximate
Tue 07:30:00 PM 36.1013 -79.9411 15° North  Level Estimated

Login

Don't have an account? Register now (free) for customized features, flight alerts, and more!